Terminal Aerodrome Forecast
Issued by NWS Rapid City, SD

Home | Current Version | Previous Version | Graphics & Text | Print | Product List | Glossary On
Versions: 1 2 3 4 5 6 7 8 9 10 11 12 13 14 15
000
FTUS43 KUNR 211700
TAFRAP
TAF
KRAP 211720Z 2118/2218 18014G22KT P6SM SCT200
     FM220000 20008KT P6SM SCT200
     FM220900 34015KT P6SM BKN200=

USA.gov is the U.S. government's official web portal to all federal, state and local government web resources and services.